Time;durP1;ratioP1;P1;durP2;ratioP2;P2;SDS_P1;SDS_P2;PMS_P1;PMS_P2;Temp;Humidity;BMP_temperature;BMP_pressure;BME280_temperature;BME280_humidity;BME280_pressure;Samples;Min_cycle;Max_cycle;Signal;HPM_P1;HPM_P2
2022/05/12 00:04:39;;;;;;;0.30;0.20;;;16.10;95.80;;;15.01;68.37;100164.44;10361430;28;96662;-79
2022/05/12 00:09:42;;;;;;;0.47;0.35;;;16.20;95.70;;;14.95;68.66;100168.72;10339852;28;96762;-79
2022/05/12 00:14:45;;;;;;;1.17;0.80;;;16.10;96.50;;;14.89;68.58;100158.81;10333582;28;97149;-79
2022/05/12 00:19:48;;;;;;;0.63;0.40;;;16.10;97.20;;;14.84;69.14;100164.75;10325934;28;97704;-78
2022/05/12 00:24:50;;;;;;;0.60;0.50;;;16.00;98.50;;;14.84;69.38;100154.03;10324115;28;97046;-79
2022/05/12 00:29:53;;;;;;;1.00;0.68;;;16.00;98.80;;;14.86;69.54;100153.84;10338096;28;96774;-79
2022/05/12 00:34:56;;;;;;;1.10;0.50;;;16.00;98.00;;;14.84;69.65;100164.75;10307744;28;96786;-80
2022/05/12 00:39:59;;;;;;;0.80;0.52;;;16.00;98.60;;;14.72;70.01;100155.59;10311364;28;97579;-80
2022/05/12 00:45:03;;;;;;;0.52;0.43;;;16.00;98.40;;;14.60;70.19;100154.50;10312796;28;96741;-80
2022/05/12 00:50:07;;;;;;;1.17;0.70;;;15.90;99.20;;;14.44;70.98;100158.25;10352946;28;96534;-79
2022/05/12 00:55:18;;;;;;;0.47;0.38;;;15.70;98.50;;;14.34;71.62;100155.91;10323663;28;96625;-79
2022/05/12 01:00:23;;;;;;;1.05;0.73;;;15.60;99.50;;;14.29;71.46;100152.19;10307298;28;96526;-79
2022/05/12 01:05:27;;;;;;;0.73;0.45;;;15.60;99.50;;;14.18;72.02;100162.34;10359045;28;97034;-79
2022/05/12 01:10:31;;;;;;;0.60;0.60;;;15.50;99.90;;;14.12;72.13;100160.44;10310036;28;97524;-79
2022/05/12 01:15:34;;;;;;;0.65;0.40;;;15.40;99.90;;;14.07;72.66;100160.19;10306469;28;97790;-77
2022/05/12 01:20:39;;;;;;;1.07;0.43;;;15.40;99.90;;;14.02;73.31;100161.78;10295269;28;96537;-79
2022/05/12 01:25:42;;;;;;;1.30;0.50;;;15.30;99.90;;;14.00;73.35;100159.31;10307707;28;96486;-78
2022/05/12 01:30:45;;;;;;;1.75;1.05;;;15.30;99.90;;;13.89;73.18;100162.47;10302474;28;96614;-78
2022/05/12 01:35:49;;;;;;;0.63;0.33;;;15.20;99.90;;;13.83;72.90;100158.72;10332373;28;98695;-79
2022/05/12 01:40:52;;;;;;;0.50;0.30;;;15.10;99.90;;;13.73;73.14;100158.19;10331050;28;96807;-79
2022/05/12 01:46:00;;;;;;;1.77;0.90;;;15.10;99.90;;;13.66;73.59;100165.31;10338054;28;98465;-79
2022/05/12 01:51:04;;;;;;;0.47;0.30;;;15.00;99.90;;;13.55;74.08;100163.13;10340031;28;96519;-78
2022/05/12 01:56:08;;;;;;;1.33;1.23;;;14.90;99.90;;;13.47;74.40;100148.06;10334198;28;98420;-78
2022/05/12 02:01:11;;;;;;;0.87;0.57;;;14.80;99.90;;;13.44;74.79;100153.78;10332101;28;97170;-79
2022/05/12 02:06:14;;;;;;;1.67;0.70;;;14.70;99.90;;;13.39;74.87;100159.69;10340855;28;99195;-79
2022/05/12 02:11:17;;;;;;;0.93;0.70;;;14.70;99.90;;;13.34;74.95;100147.91;10356737;28;96579;-79
2022/05/12 02:16:22;;;;;;;1.30;0.90;;;14.60;99.90;;;13.26;75.12;100145.34;10343206;28;98270;-79
2022/05/12 02:21:25;;;;;;;1.50;0.83;;;14.60;99.90;;;13.20;75.43;100136.22;10317704;28;96661;-79
2022/05/12 02:26:30;;;;;;;1.43;0.63;;;14.50;99.90;;;13.10;75.55;100152.50;10301622;28;96476;-79
2022/05/12 02:31:33;;;;;;;1.40;0.57;;;14.50;99.90;;;13.04;76.17;100152.44;10348432;28;96819;-78
2022/05/12 02:36:36;;;;;;;2.67;1.03;;;14.40;99.90;;;13.00;76.72;100151.97;10339562;28;96539;-78
2022/05/12 02:41:39;;;;;;;1.37;0.70;;;14.30;99.90;;;12.96;76.79;100144.53;10342930;28;97571;-78
2022/05/12 02:46:42;;;;;;;0.53;0.53;;;14.30;99.90;;;12.91;77.07;100153.06;10338835;28;96618;-78
2022/05/12 02:51:47;;;;;;;1.70;1.10;;;14.20;99.90;;;12.85;77.33;100146.63;10340090;28;98650;-78
2022/05/12 02:56:52;;;;;;;1.67;0.80;;;14.20;99.90;;;12.82;77.42;100148.84;10354991;28;98500;-79
2022/05/12 03:01:55;;;;;;;0.73;0.50;;;14.10;99.90;;;12.79;77.81;100149.22;10348713;28;97480;-79
2022/05/12 03:06:59;;;;;;;1.00;0.47;;;14.10;99.90;;;12.74;78.13;100154.25;10358351;28;98123;-78
2022/05/12 03:12:02;;;;;;;2.80;1.47;;;14.10;99.90;;;12.72;78.13;100164.28;10349065;28;96532;-78
2022/05/12 03:17:05;;;;;;;1.40;0.77;;;14.00;99.90;;;12.71;78.50;100170.59;10327243;28;96639;-79
2022/05/12 03:22:09;;;;;;;2.10;1.23;;;14.00;99.90;;;12.66;78.97;100165.03;10312598;28;97412;-77
2022/05/12 03:27:13;;;;;;;2.57;0.93;;;14.00;99.90;;;12.68;79.10;100173.66;10297625;28;96463;-77
2022/05/12 03:32:16;;;;;;;1.83;1.23;;;14.00;99.90;;;12.71;79.39;100170.59;10294745;28;98480;-77
2022/05/12 03:37:18;;;;;;;0.83;0.70;;;13.90;99.90;;;12.73;79.50;100177.44;10332092;28;97480;-78
2022/05/12 03:42:21;;;;;;;0.77;0.70;;;14.00;99.90;;;12.77;79.64;100180.53;10325701;28;96665;-79
2022/05/12 03:47:33;;;;;;;1.67;0.97;;;14.00;99.90;;;12.82;79.61;100175.50;10330067;28;98157;-77
2022/05/12 03:52:37;;;;;;;0.70;0.57;;;14.10;99.90;;;12.86;80.14;100184.78;10333890;28;98253;-77
2022/05/12 03:57:40;;;;;;;0.77;0.57;;;14.10;99.90;;;12.94;80.32;100174.03;10317562;28;96586;-76
2022/05/12 04:02:43;;;;;;;0.30;0.30;;;14.20;99.90;;;13.05;80.59;100181.56;10293598;28;96541;-76
2022/05/12 04:07:46;;;;;;;2.20;0.73;;;14.30;99.90;;;13.20;80.75;100188.78;10290295;28;96537;-76
2022/05/12 04:12:50;;;;;;;3.23;1.33;;;14.40;99.90;;;13.36;80.88;100192.06;10326683;28;97889;-76
2022/05/12 04:18:00;;;;;;;1.53;1.00;;;14.50;99.90;;;13.52;80.61;100188.38;10326688;28;98757;-76
2022/05/12 04:23:04;;;;;;;1.80;1.03;;;14.70;99.90;;;13.66;80.57;100195.50;10329976;28;96642;-77
2022/05/12 04:28:07;;;;;;;1.30;1.03;;;14.80;99.90;;;13.82;80.69;100193.66;10319139;28;96808;-76
2022/05/12 04:38:31;;;;;;;;;;;15.10;99.90;;;14.17;80.14;100203.47;10328221;28;96660;-77
2022/05/12 04:43:35;;;;;;;0.63;0.47;;;15.30;99.90;;;14.33;79.62;100210.38;10330704;28;97300;-77
2022/05/12 04:48:38;;;;;;;0.45;0.32;;;15.50;99.90;;;14.50;79.45;100192.25;10335714;28;96633;-77
2022/05/12 04:53:41;;;;;;;1.90;0.90;;;15.60;99.90;;;14.69;79.01;100202.31;10322753;28;98412;-78
2022/05/12 04:58:45;;;;;;;0.90;0.63;;;15.80;99.90;;;14.91;78.60;100211.09;10290767;28;97743;-77
2022/05/12 05:03:48;;;;;;;2.83;1.17;;;16.00;99.90;;;15.14;78.02;100212.66;10293695;28;98518;-77
2022/05/12 05:08:51;;;;;;;1.88;0.95;;;16.20;99.90;;;15.35;77.14;100206.38;10298396;28;97171;-77
2022/05/12 05:13:54;;;;;;;1.08;0.60;;;16.40;99.90;;;15.56;75.97;100211.63;10313961;28;97495;-78
2022/05/12 05:18:58;;;;;;;1.48;1.00;;;16.70;99.90;;;15.74;75.44;100205.75;10304100;28;96617;-77
2022/05/12 05:24:01;;;;;;;1.50;1.10;;;16.80;99.90;;;15.96;75.05;100211.81;10303809;28;98441;-77
2022/05/12 05:29:05;;;;;;;1.40;1.13;;;17.00;99.90;;;16.16;74.59;100214.53;10322320;28;98146;-78
2022/05/12 05:34:09;;;;;;;1.70;1.15;;;17.20;99.90;;;16.42;74.25;100221.75;10321885;28;96739;-78
2022/05/12 05:39:21;;;;;;;1.30;0.90;;;17.40;99.90;;;16.68;73.35;100210.22;10329292;28;96449;-78
2022/05/12 05:44:24;;;;;;;1.40;0.93;;;17.60;99.90;;;16.89;72.93;100209.19;10290450;28;98028;-78
2022/05/12 05:49:28;;;;;;;1.38;0.85;;;17.80;99.90;;;17.04;71.10;100215.19;10330485;28;96332;-78
2022/05/12 05:54:34;;;;;;;1.38;1.08;;;18.00;99.90;;;17.19;71.12;100214.91;10328829;28;96567;-76
2022/05/12 05:59:38;;;;;;;3.28;1.65;;;18.20;99.90;;;17.38;70.99;100208.66;10329261;28;96727;-77
2022/05/12 06:04:41;;;;;;;2.20;1.35;;;18.40;99.90;;;17.63;70.11;100206.06;10289663;28;97295;-78
2022/05/12 06:09:43;;;;;;;2.78;1.90;;;18.60;99.90;;;17.84;69.59;100213.03;10316308;28;96470;-78
2022/05/12 06:14:46;;;;;;;2.47;1.58;;;18.90;99.90;;;18.04;69.25;100221.00;10328821;28;96676;-76
2022/05/12 06:19:52;;;;;;;2.05;1.45;;;19.10;99.90;;;18.24;68.64;100208.25;10329263;28;97508;-76
2022/05/12 06:24:54;;;;;;;3.60;1.88;;;19.30;99.90;;;18.51;67.87;100208.88;10329051;28;96616;-77
2022/05/12 06:29:58;;;;;;;3.65;1.77;;;19.50;99.90;;;18.80;67.27;100204.72;10302704;28;98921;-76
2022/05/12 06:35:01;;;;;;;4.10;1.98;;;19.80;99.90;;;19.09;66.28;100215.84;10329473;28;96666;-76
2022/05/12 06:40:05;;;;;;;1.45;1.00;;;20.10;99.90;;;19.34;65.32;100213.91;10341652;28;97935;-76
2022/05/12 06:45:15;;;;;;;3.30;1.75;;;20.40;99.90;;;19.58;64.25;100214.88;10302251;28;97581;-76
2022/05/12 06:50:27;;;;;;;2.55;1.60;;;20.60;99.60;;;19.87;64.02;100213.28;10335010;28;96611;-77
2022/05/12 06:55:31;;;;;;;2.05;1.38;;;20.90;99.30;;;20.14;63.13;100208.31;10333494;28;97088;-77
2022/05/12 07:00:34;;;;;;;1.63;0.85;;;21.10;98.60;;;20.39;62.33;100205.47;10324850;28;97478;-77
2022/05/12 07:05:38;;;;;;;2.47;1.35;;;21.40;97.90;;;20.72;60.74;100196.00;10293945;28;96577;-77
2022/05/12 07:10:42;;;;;;;2.63;1.58;;;21.70;96.80;;;20.95;59.00;100187.91;10325943;28;96473;-78
2022/05/12 07:15:48;;;;;;;1.45;1.20;;;22.00;95.40;;;21.22;57.35;100187.38;10301614;28;96974;-78
2022/05/12 07:31:34;;;;;;;3.65;2.13;;;22.70;92.10;;;22.01;54.94;100180.34;10334937;28;98020;-76
2022/05/12 07:36:41;;;;;;;2.90;1.48;;;23.00;90.50;;;22.23;54.20;100176.94;10334611;28;96482;-77
2022/05/12 07:41:50;;;;;;;1.45;0.93;;;23.20;89.20;;;22.48;52.47;100179.22;10364860;28;96460;-77
2022/05/12 07:46:53;;;;;;;1.80;1.45;;;23.50;87.70;;;22.73;52.28;100168.81;10298346;28;96836;-78
2022/05/12 07:51:56;;;;;;;1.35;0.95;;;23.70;86.00;;;22.94;52.23;100168.03;10302401;28;96470;-78
2022/05/12 07:56:58;;;;;;;2.72;1.40;;;23.90;84.50;;;23.18;50.71;100174.06;10332892;28;96502;-78
2022/05/12 08:02:02;;;;;;;1.98;1.38;;;24.20;82.10;;;23.46;50.08;100164.91;10307116;28;96497;-78
2022/05/12 08:07:05;;;;;;;0.95;0.80;;;24.40;81.00;;;23.67;49.23;100167.88;10328002;28;96998;-78
2022/05/12 08:12:08;;;;;;;1.33;0.82;;;24.70;79.70;;;24.05;49.20;100161.50;10332689;28;96534;-79
2022/05/12 08:17:11;;;;;;;1.40;0.80;;;25.00;78.70;;;24.43;48.66;100162.38;10307645;28;96761;-78
2022/05/12 08:22:15;;;;;;;1.10;0.82;;;25.40;77.40;;;24.68;47.25;100159.84;10320092;28;97681;-78
2022/05/12 08:27:19;;;;;;;1.58;0.95;;;25.60;75.60;;;24.83;47.26;100151.78;10331835;28;96590;-79
2022/05/12 08:32:23;;;;;;;1.95;0.95;;;25.80;74.00;;;25.05;46.21;100159.78;10321487;28;97641;-78
2022/05/12 08:37:26;;;;;;;1.60;0.90;;;26.00;72.80;;;25.27;47.06;100153.38;10329547;28;96718;-77
2022/05/12 08:42:43;;;;;;;4.38;1.00;;;26.30;72.90;;;25.58;45.95;100157.03;10332055;28;96461;-78
2022/05/12 08:47:50;;;;;;;1.05;0.75;;;26.50;71.80;;;25.83;46.46;100154.38;10325647;28;96933;-78
2022/05/12 08:53:05;;;;;;;1.27;0.80;;;26.80;71.30;;;26.02;46.22;100154.66;10330779;28;96621;-78
2022/05/12 08:58:16;;;;;;;1.67;1.10;;;27.00;70.40;;;26.24;45.21;100148.97;10311792;28;97735;-77
2022/05/12 09:03:59;;;;;;;2.00;0.98;;;27.20;70.00;;;26.47;44.55;100153.06;10309003;28;98010;-77
2022/05/12 09:09:27;;;;;;;1.33;0.70;;;27.40;68.40;;;26.68;43.04;100154.66;10318271;28;96754;-77
2022/05/12 09:14:56;;;;;;;1.35;0.90;;;27.70;64.80;;;26.85;42.71;100143.47;10317320;28;96604;-77
2022/05/12 09:20:01;;;;;;;1.20;0.63;;;27.90;65.80;;;27.04;42.87;100145.56;10335561;28;97511;-77
2022/05/12 09:25:06;;;;;;;1.20;0.80;;;28.10;65.10;;;27.30;42.16;100138.16;10303418;28;97432;-78
2022/05/12 09:30:12;;;;;;;0.60;0.60;;;28.30;64.20;;;27.55;39.34;100143.47;10333149;28;96721;-78
2022/05/12 09:35:26;;;;;;;3.65;1.08;;;28.50;61.00;;;27.77;38.48;100145.00;10329731;28;97611;-77
2022/05/12 09:40:39;;;;;;;0.82;0.60;;;28.70;57.30;;;27.86;36.26;100146.84;10328471;28;97472;-78
2022/05/12 09:45:43;;;;;;;1.17;0.60;;;28.80;58.30;;;27.91;35.98;100137.81;10329790;28;96645;-77
2022/05/12 09:50:48;;;;;;;2.15;0.80;;;28.90;56.70;;;28.03;36.05;100140.19;10294285;28;96561;-78
2022/05/12 09:56:10;;;;;;;0.73;0.50;;;29.00;56.00;;;28.14;34.82;100136.28;10328588;28;96608;-77
2022/05/12 10:01:20;;;;;;;0.68;0.40;;;29.10;55.30;;;28.27;34.17;100121.97;10303694;28;96584;-78
2022/05/12 10:12:14;;;;;;;0.40;0.40;;;29.40;53.70;;;28.76;33.63;100134.63;10287525;28;96906;-79
2022/05/12 10:17:48;;;;;;;1.08;0.70;;;29.60;51.90;;;28.92;34.37;100127.06;10311059;28;98507;-78
2022/05/12 10:23:14;;;;;;;1.50;0.80;;;29.80;52.70;;;29.02;33.15;100122.31;10336831;28;96460;-77
2022/05/12 10:28:49;;;;;;;0.52;0.45;;;29.90;51.70;;;29.16;32.73;100113.41;10309239;28;96718;-76
2022/05/12 10:34:24;;;;;;;0.85;0.55;;;30.00;51.10;;;29.11;34.04;100110.72;10309153;28;96863;-78
2022/05/12 10:39:54;;;;;;;1.58;0.73;;;30.00;52.20;;;29.16;34.99;100108.75;10334936;28;96651;-77
2022/05/12 10:45:30;;;;;;;0.82;0.70;;;30.00;52.60;;;29.34;35.02;100115.34;10316974;28;96611;-78
2022/05/12 10:51:04;;;;;;;1.75;0.85;;;30.20;52.90;;;29.47;34.70;100109.13;10321362;28;96624;-78
2022/05/12 10:56:44;;;;;;;1.92;0.80;;;30.30;52.50;;;29.51;34.51;100112.09;10335361;28;96689;-78
2022/05/12 11:02:12;;;;;;;2.55;0.77;;;30.40;52.50;;;29.64;35.10;100105.09;10333266;28;96839;-77
2022/05/12 11:07:38;;;;;;;1.30;0.93;;;30.50;53.30;;;29.81;34.75;100098.00;10318822;28;96672;-78
2022/05/12 11:12:51;;;;;;;1.17;0.57;;;30.60;52.70;;;29.94;33.99;100090.94;10299283;28;96735;-78
2022/05/12 11:18:07;;;;;;;1.23;0.70;;;30.70;51.80;;;30.14;33.11;100078.84;10315061;28;96563;-78
2022/05/12 11:24:11;;;;;;;1.05;0.63;;;30.90;51.40;;;30.30;32.49;100088.41;10308300;28;96516;-79
2022/05/12 11:29:47;;;;;;;0.95;0.50;;;31.10;50.00;;;30.29;32.73;100085.97;10291549;28;97838;-78
2022/05/12 11:34:58;;;;;;;0.93;0.60;;;31.10;49.90;;;30.46;32.34;100077.97;10306863;28;96608;-77
2022/05/12 11:40:06;;;;;;;1.35;0.80;;;31.20;50.60;;;30.74;33.19;100067.84;10290594;28;96611;-78
2022/05/12 11:45:34;;;;;;;0.63;0.57;;;31.50;51.60;;;30.91;31.78;100073.53;10331659;28;96591;-78
2022/05/12 11:50:56;;;;;;;1.05;0.60;;;31.70;49.00;;;31.02;29.98;100062.34;10300217;28;96803;-78
2022/05/12 11:56:12;;;;;;;0.38;0.32;;;31.80;47.60;;;31.11;29.13;100072.28;10331565;28;96778;-78
2022/05/12 12:01:37;;;;;;;0.80;0.45;;;31.80;45.80;;;31.28;28.46;100054.41;10325765;28;97303;-78
2022/05/12 12:06:47;;;;;;;0.75;0.50;;;32.00;45.20;;;31.40;26.86;100060.97;10289744;28;96753;-77
2022/05/12 12:11:50;;;;;;;0.45;0.45;;;32.10;45.00;;;31.54;25.19;100057.34;10291744;28;96455;-79
2022/05/12 12:17:09;;;;;;;1.48;0.47;;;32.20;43.10;;;31.45;26.05;100062.78;10306003;28;96634;-78
2022/05/12 12:22:37;;;;;;;0.30;0.30;;;32.30;42.50;;;31.51;26.11;100069.78;10328280;28;96918;-78
2022/05/12 12:27:52;;;;;;;1.00;0.32;;;32.30;42.60;;;31.58;25.68;100061.91;10332873;28;96513;-78
2022/05/12 12:33:25;;;;;;;0.70;0.60;;;32.50;42.10;;;31.75;26.08;100063.19;10319144;28;96700;-79
2022/05/12 12:38:46;;;;;;;1.58;0.52;;;32.80;43.40;;;31.91;26.64;100061.72;10331160;28;96544;-78
2022/05/12 12:44:23;;;;;;;0.80;0.60;;;33.00;42.70;;;32.21;26.35;100051.88;10309587;28;97703;-79
2022/05/12 12:49:33;;;;;;;0.95;0.75;;;33.30;43.50;;;32.37;26.15;100044.84;10332090;28;98403;-78
2022/05/12 13:00:11;;;;;;;0.50;0.50;;;33.70;43.60;;;32.41;26.66;100042.28;10326834;28;98031;-79
2022/05/12 13:05:20;;;;;;;0.63;0.57;;;33.70;42.40;;;32.36;25.83;100039.66;10303622;28;97546;-79
2022/05/12 13:10:24;;;;;;;1.23;0.43;;;33.90;41.90;;;32.45;25.63;100030.34;10309218;28;98261;-79
2022/05/12 13:15:33;;;;;;;0.90;0.50;;;33.90;41.20;;;32.54;25.60;100027.59;10312741;28;98361;-79
2022/05/12 13:20:44;;;;;;;1.17;0.50;;;34.00;41.30;;;32.78;25.77;100013.44;10325472;28;96557;-89
2022/05/12 13:25:47;;;;;;;1.02;0.47;;;34.20;41.80;;;33.06;26.03;100011.25;10330319;28;96538;-78
2022/05/12 13:31:10;;;;;;;0.98;0.75;;;34.50;42.20;;;33.32;24.45;100024.19;10309954;28;97986;-79
2022/05/12 13:36:24;;;;;;;0.70;0.47;;;34.60;40.10;;;33.20;25.39;100017.41;10327286;28;96938;-78
2022/05/12 13:41:38;;;;;;;0.52;0.50;;;34.20;41.40;;;33.26;24.80;100013.34;10309333;28;96652;-79
2022/05/12 13:46:51;;;;;;;0.57;0.43;;;34.10;41.10;;;33.32;24.39;100011.25;10348075;28;96696;-77
2022/05/12 13:52:13;;;;;;;0.75;0.60;;;33.90;41.40;;;33.09;24.40;99998.75;10333088;28;97132;-78
2022/05/12 13:57:19;;;;;;;1.00;0.75;;;33.60;40.90;;;32.85;25.64;99999.19;10329358;28;96726;-77
2022/05/12 14:02:34;;;;;;;0.65;0.65;;;33.40;41.80;;;32.72;25.43;100007.25;10336088;28;96875;-78
2022/05/12 14:07:40;;;;;;;0.28;0.28;;;33.20;42.00;;;32.54;25.99;99999.28;10295258;28;96666;-77
2022/05/12 14:23:28;;;;;;;0.98;0.73;;;33.10;42.50;;;32.56;25.66;99984.06;10328613;28;96665;-78
2022/05/12 14:28:31;;;;;;;0.95;0.70;;;33.10;42.20;;;32.42;26.42;99986.16;10337844;28;96384;-78
2022/05/12 14:33:34;;;;;;;0.82;0.70;;;33.10;42.60;;;32.03;26.46;99975.91;10329292;28;98009;-78
2022/05/12 14:38:37;;;;;;;0.90;0.68;;;32.80;42.70;;;31.61;26.60;99972.63;10321066;28;96617;-78
2022/05/12 14:43:40;;;;;;;1.92;0.80;;;32.50;42.40;;;31.29;27.44;99959.94;10301250;28;97821;-78
2022/05/12 14:48:45;;;;;;;0.55;0.50;;;32.10;43.20;;;31.41;27.33;99962.94;10307839;28;96395;-79
2022/05/12 14:53:48;;;;;;;2.55;0.70;;;32.10;43.40;;;31.68;27.42;99967.47;10321079;28;96667;-77
2022/05/12 14:58:51;;;;;;;0.50;0.32;;;32.30;43.40;;;31.90;27.59;99961.16;10309488;28;98495;-77
2022/05/12 15:03:58;;;;;;;1.30;0.50;;;32.40;43.90;;;32.05;27.27;99959.94;10303850;28;97574;-76
2022/05/12 15:09:01;;;;;;;1.10;0.40;;;32.60;43.90;;;32.33;27.34;99958.59;10307700;28;96609;-77
2022/05/12 15:14:05;;;;;;;0.50;0.40;;;32.90;44.10;;;32.71;26.62;99955.31;10329261;28;97087;-77
2022/05/12 15:19:07;;;;;;;0.60;0.45;;;33.30;42.00;;;32.74;25.63;99944.47;10318273;28;96772;-79
2022/05/12 15:24:11;;;;;;;1.65;0.73;;;33.50;42.70;;;32.79;28.22;99951.75;10295112;28;96657;-77
2022/05/12 15:29:14;;;;;;;0.50;0.50;;;33.50;43.90;;;32.89;26.43;99958.94;10309015;28;96854;-79
2022/05/12 15:34:17;;;;;;;0.60;0.45;;;33.70;42.80;;;32.93;27.02;99951.66;10320583;28;96758;-77
2022/05/12 15:39:22;;;;;;;1.20;0.60;;;33.70;43.10;;;32.92;26.45;99950.81;10292038;28;97131;-77
2022/05/12 15:44:25;;;;;;;0.90;0.75;;;33.80;42.80;;;33.17;27.27;99957.50;10329413;28;96735;-77
2022/05/12 15:49:30;;;;;;;0.95;0.70;;;34.00;43.80;;;33.49;26.92;99964.44;10327427;28;96539;-78
2022/05/12 15:54:33;;;;;;;1.15;0.90;;;34.30;43.00;;;33.74;26.34;99965.53;10330573;28;96742;-78
2022/05/12 15:59:37;;;;;;;0.85;0.70;;;34.60;42.20;;;33.62;26.28;99968.13;10332391;28;97184;-78
2022/05/12 16:04:40;;;;;;;0.55;0.45;;;34.40;41.90;;;33.58;26.57;99971.88;10337070;28;97340;-78
2022/05/12 16:09:44;;;;;;;0.93;0.73;;;34.30;42.90;;;33.41;26.46;99967.22;10315034;28;97116;-79
2022/05/12 16:14:50;;;;;;;0.93;0.82;;;34.20;42.80;;;33.04;27.70;99972.19;10354164;28;97377;-78
2022/05/12 16:20:00;;;;;;;1.05;0.93;;;33.80;44.10;;;32.80;28.11;99969.06;10353414;28;98264;-79
2022/05/12 16:25:03;;;;;;;1.63;1.30;;;33.60;44.10;;;32.63;28.63;99976.19;10331917;28;96764;-78
2022/05/12 16:30:16;;;;;;;1.40;0.88;;;33.30;44.80;;;32.43;28.98;99972.06;10299187;28;98056;-78
2022/05/12 16:35:19;;;;;;;0.75;0.50;;;33.20;45.40;;;32.22;29.64;99984.75;10323413;28;96628;-76
2022/05/12 16:40:22;;;;;;;1.42;0.90;;;32.90;45.50;;;32.05;29.14;99988.25;10330771;28;96503;-77
2022/05/12 16:45:26;;;;;;;1.35;0.80;;;32.80;45.20;;;31.76;29.41;99987.88;10317188;28;96846;-78
2022/05/12 16:50:30;;;;;;;2.25;1.13;;;32.50;45.50;;;31.32;30.84;99995.03;10343988;28;97499;-76
2022/05/12 16:55:33;;;;;;;1.73;0.70;;;32.20;46.00;;;30.79;31.66;99992.88;10321390;28;96426;-78
2022/05/12 17:00:36;;;;;;;1.02;0.70;;;31.70;46.70;;;30.26;32.05;99990.66;10346467;28;97641;-78
2022/05/12 17:05:40;;;;;;;1.35;0.75;;;31.20;47.20;;;29.76;33.35;100001.41;10350075;28;97814;-78
2022/05/12 17:10:47;;;;;;;0.88;0.50;;;30.80;48.10;;;29.36;33.79;100000.91;10337654;28;96350;-78
2022/05/12 17:15:50;;;;;;;2.85;1.27;;;30.40;48.50;;;28.99;34.85;99999.00;10352961;28;98128;-78
2022/05/12 17:20:54;;;;;;;0.98;0.88;;;30.00;49.70;;;28.69;35.59;100005.66;10340479;28;97444;-78
2022/05/12 17:25:58;;;;;;;1.27;0.77;;;29.70;49.90;;;28.42;35.95;100003.50;10350934;28;96688;-78
2022/05/12 17:31:01;;;;;;;1.02;0.60;;;29.50;50.50;;;28.17;36.84;100001.84;10345002;28;99170;-78
2022/05/12 17:36:09;;;;;;;2.03;0.82;;;29.20;50.70;;;27.89;37.16;100006.19;10299561;28;96679;-79
2022/05/12 17:41:13;;;;;;;1.45;0.98;;;29.00;51.30;;;27.66;38.14;100005.84;10345896;28;96561;-78
2022/05/12 17:46:18;;;;;;;0.73;0.60;;;28.70;51.70;;;27.36;39.23;100012.34;10303529;28;96724;-77
2022/05/12 17:51:21;;;;;;;1.45;0.77;;;28.50;52.10;;;27.04;40.43;100020.13;10325862;28;96696;-77
2022/05/12 17:56:25;;;;;;;1.02;0.68;;;28.20;52.70;;;26.73;40.87;100020.28;10331039;28;96621;-77
2022/05/12 18:01:28;;;;;;;0.80;0.65;;;27.90;53.60;;;26.41;41.81;100024.22;10355886;28;96614;-77
2022/05/12 18:06:32;;;;;;;0.93;0.80;;;27.60;54.20;;;26.10;42.72;100028.06;10305963;28;98410;-77
2022/05/12 18:11:35;;;;;;;1.15;0.82;;;27.30;54.60;;;25.82;43.60;100045.78;10305926;28;96682;-77
2022/05/12 18:16:38;;;;;;;0.88;0.60;;;27.00;55.30;;;25.54;43.93;100047.91;10298484;28;99222;-77
2022/05/12 18:21:42;;;;;;;1.45;0.75;;;26.80;56.40;;;25.27;44.25;100048.13;10312346;28;96633;-77
2022/05/12 18:26:46;;;;;;;1.38;0.70;;;26.50;56.30;;;25.03;45.05;100058.63;10303995;28;96705;-77
2022/05/12 18:31:52;;;;;;;1.95;0.77;;;26.20;57.10;;;24.81;45.13;100068.88;10364277;28;97602;-77
2022/05/12 18:36:55;;;;;;;0.80;0.57;;;26.00;57.40;;;24.59;46.18;100082.63;10315852;28;96568;-77
2022/05/12 18:41:58;;;;;;;1.27;0.93;;;25.70;58.20;;;24.38;46.73;100089.00;10339583;28;96543;-77
2022/05/12 18:47:01;;;;;;;0.95;0.73;;;25.50;59.40;;;24.17;46.59;100102.41;10324880;28;96486;-77
2022/05/12 18:52:04;;;;;;;2.40;0.88;;;25.30;59.70;;;24.00;47.17;100112.59;10329530;28;98009;-77
2022/05/12 18:57:10;;;;;;;2.25;1.02;;;25.10;59.80;;;23.84;47.78;100125.19;10328239;28;96567;-77
2022/05/12 19:02:13;;;;;;;1.50;0.85;;;24.90;60.20;;;23.66;48.10;100122.84;10319564;28;96875;-76
2022/05/12 19:07:23;;;;;;;1.33;0.70;;;24.70;59.80;;;23.49;47.86;100131.03;10352098;28;98492;-77
2022/05/12 19:12:26;;;;;;;;;;;24.60;59.70;;;23.36;47.84;100145.00;10367915;28;96487;-77
2022/05/12 19:17:31;;;;;;;0.73;0.57;;;24.40;59.90;;;23.24;47.27;100150.53;10309624;28;98057;-77
2022/05/12 19:22:34;;;;;;;1.27;0.50;;;24.30;59.80;;;23.17;46.53;100144.50;10336714;28;96664;-78
2022/05/12 19:27:38;;;;;;;1.65;0.80;;;24.20;59.30;;;23.10;46.42;100152.81;10322689;28;98386;-78
2022/05/12 19:32:42;;;;;;;0.85;0.52;;;24.10;59.00;;;23.00;47.11;100154.56;10326740;28;97663;-79
2022/05/12 19:37:49;;;;;;;0.82;0.70;;;24.00;59.60;;;22.82;48.46;100158.34;10344948;28;96869;-78
2022/05/12 19:42:53;;;;;;;1.13;0.77;;;23.90;61.40;;;22.59;50.07;100165.59;10342417;28;98230;-78
2022/05/12 19:47:59;;;;;;;0.82;0.60;;;23.70;63.20;;;22.32;50.39;100176.28;10323817;28;96802;-78
2022/05/12 19:53:02;;;;;;;1.08;0.70;;;23.40;63.00;;;22.13;50.82;100183.81;10317675;28;97368;-78
2022/05/12 19:58:05;;;;;;;1.40;0.38;;;23.30;62.90;;;21.99;52.01;100190.56;10344291;28;97874;-78
2022/05/12 20:03:09;;;;;;;0.57;0.47;;;23.10;65.60;;;21.85;52.21;100186.53;10314296;28;96617;-79
2022/05/12 20:08:13;;;;;;;0.38;0.38;;;22.90;65.50;;;21.71;52.36;100177.88;10339992;28;96716;-78
2022/05/12 20:13:16;;;;;;;1.17;0.80;;;22.80;65.20;;;21.68;51.94;100177.53;10292794;28;96805;-78
2022/05/12 20:18:21;;;;;;;0.52;0.40;;;22.70;65.20;;;21.62;52.24;100174.72;10297470;28;97559;-77
2022/05/12 20:23:24;;;;;;;2.83;0.80;;;22.70;65.80;;;21.52;52.58;100171.81;10330107;28;96652;-78
2022/05/12 20:28:27;;;;;;;1.67;0.70;;;22.60;65.30;;;21.44;53.50;100169.50;10318676;28;96907;-78
2022/05/12 20:33:31;;;;;;;1.15;0.77;;;22.50;66.70;;;21.35;53.92;100168.22;10309211;28;96866;-78
2022/05/12 20:38:35;;;;;;;0.88;0.68;;;22.40;68.30;;;21.23;54.07;100172.81;10313338;28;97711;-79
2022/05/12 20:43:37;;;;;;;0.85;0.52;;;22.20;68.20;;;21.17;53.72;100171.06;10313984;28;96826;-79
2022/05/12 20:48:47;;;;;;;0.85;0.60;;;22.10;67.70;;;21.13;53.89;100178.00;10352331;28;96534;-78
2022/05/12 20:53:50;;;;;;;1.20;1.00;;;22.10;67.50;;;21.10;54.17;100173.88;10348130;28;97085;-79
2022/05/12 20:58:54;;;;;;;1.98;0.65;;;22.10;67.20;;;21.07;54.23;100175.19;10330569;28;96397;-78
2022/05/12 21:03:58;;;;;;;1.15;0.85;;;22.10;67.70;;;21.03;54.95;100179.41;10327831;28;98183;-79
2022/05/12 21:09:09;;;;;;;0.55;0.50;;;22.10;68.70;;;20.98;55.27;100184.72;10299890;28;97526;-79
2022/05/12 21:14:16;;;;;;;0.88;0.68;;;22.00;68.50;;;20.94;54.76;100185.44;10328987;28;96714;-79
2022/05/12 21:19:19;;;;;;;1.20;0.68;;;21.90;68.40;;;21.06;52.75;100191.66;10362304;28;98021;-78
2022/05/12 21:24:22;;;;;;;1.08;0.52;;;22.00;66.30;;;21.33;51.34;100187.38;10344957;28;97035;-78
2022/05/12 21:29:25;;;;;;;0.45;0.22;;;22.20;65.50;;;21.66;50.58;100175.06;10325991;28;97407;-78
2022/05/12 21:34:28;;;;;;;0.68;0.55;;;22.50;64.70;;;21.95;49.85;100185.88;10343363;28;96675;-78
2022/05/12 21:39:31;;;;;;;0.82;0.60;;;22.70;64.10;;;22.12;49.93;100189.47;10356820;28;96947;-78
2022/05/12 21:44:35;;;;;;;0.95;0.70;;;22.90;64.40;;;22.23;50.00;100185.88;10366330;28;97410;-78
2022/05/12 21:49:37;;;;;;;1.02;0.70;;;23.10;64.60;;;22.28;50.30;100188.66;10312584;28;96765;-77